Time;durP1;ratioP1;P1;durP2;ratioP2;P2;SDS_P1;SDS_P2;PMS_P1;PMS_P2;Temp;Humidity;BMP_temperature;BMP_pressure;BME280_temperature;BME280_humidity;BME280_pressure;Samples;Min_cycle;Max_cycle;Signal;HPM_P1;HPM_P2
2023/06/25 00:04:12;;;;;;;10.80;7.47;;;;;;;26.15;61.18;100482.19;10135741;28;96919;-80
2023/06/25 00:09:17;;;;;;;8.77;6.90;;;;;;;26.15;61.17;100486.72;10151943;28;96824;-81
2023/06/25 00:14:20;;;;;;;10.25;7.40;;;;;;;26.08;61.38;100482.94;10138531;28;96769;-80
2023/06/25 00:19:25;;;;;;;10.07;6.43;;;;;;;26.00;61.30;100491.81;10155968;28;96818;-80
2023/06/25 00:24:29;;;;;;;10.55;7.30;;;;;;;25.92;61.84;100488.19;10173308;28;97088;-80
2023/06/25 00:29:33;;;;;;;11.98;7.45;;;;;;;25.81;61.95;100497.34;10155937;28;96654;-80
2023/06/25 00:34:41;;;;;;;11.43;7.70;;;;;;;25.85;62.04;100487.94;10136768;28;96817;-79
2023/06/25 00:39:47;;;;;;;14.43;8.35;;;;;;;25.74;62.24;100490.88;10136534;28;96870;-80
2023/06/25 00:44:50;;;;;;;11.13;7.20;;;;;;;25.68;62.30;100500.38;10134535;28;96910;-80
2023/06/25 00:49:53;;;;;;;9.77;7.40;;;;;;;25.69;62.23;100493.16;10135123;28;96853;-80
2023/06/25 00:54:58;;;;;;;9.93;7.00;;;;;;;25.51;62.59;100490.41;10161848;28;97067;-80
2023/06/25 01:00:03;;;;;;;10.05;7.20;;;;;;;25.51;62.81;100487.69;10174107;28;96612;-79
2023/06/25 01:05:12;;;;;;;11.65;7.82;;;;;;;25.58;62.61;100483.41;10131822;28;97472;-80
2023/06/25 01:10:17;;;;;;;12.52;7.63;;;;;;;25.43;62.97;100481.38;10142220;28;96984;-80
2023/06/25 01:15:20;;;;;;;11.68;7.22;;;;;;;25.16;63.82;100486.72;10138234;28;97156;-79
2023/06/25 01:20:27;;;;;;;15.73;7.83;;;;;;;25.00;64.15;100489.19;10126279;28;97881;-80
2023/06/25 01:25:32;;;;;;;10.57;7.60;;;;;;;25.04;63.99;100485.19;10134816;28;98498;-80
2023/06/25 01:30:35;;;;;;;11.10;7.82;;;;;;;25.04;64.23;100485.19;10133342;28;96894;-79
2023/06/25 01:35:38;;;;;;;13.90;7.90;;;;;;;24.88;64.67;100475.00;10144400;28;96946;-80
2023/06/25 01:40:43;;;;;;;11.50;8.10;;;;;;;24.72;64.80;100464.84;10133501;28;97081;-80
2023/06/25 01:45:46;;;;;;;11.23;7.88;;;;;;;24.91;64.25;100458.59;10135579;28;98785;-80
2023/06/25 01:50:50;;;;;;;12.43;7.90;;;;;;;25.01;64.02;100462.13;10136927;28;97614;-80
2023/06/25 01:55:54;;;;;;;12.27;8.40;;;;;;;24.83;64.49;100477.28;10130751;28;96862;-80
2023/06/25 02:00:57;;;;;;;11.25;8.43;;;;;;;24.84;64.51;100473.63;10136651;28;97776;-80
2023/06/25 02:06:01;;;;;;;9.60;7.50;;;;;;;24.76;64.68;100470.78;10132031;28;97093;-80
2023/06/25 02:11:06;;;;;;;11.93;7.67;;;;;;;24.75;64.82;100475.34;10130466;28;96980;-80
2023/06/25 02:16:09;;;;;;;12.75;7.57;;;;;;;24.64;64.87;100477.34;10135671;28;97177;-80
2023/06/25 02:21:13;;;;;;;11.10;7.97;;;;;;;24.40;65.70;100469.72;10131939;28;96957;-80
2023/06/25 02:26:18;;;;;;;11.10;8.20;;;;;;;24.32;65.83;100477.69;10143847;28;97000;-79
2023/06/25 02:31:21;;;;;;;13.43;8.38;;;;;;;24.50;65.45;100477.78;10137176;28;96806;-80
2023/06/25 02:36:24;;;;;;;10.03;7.77;;;;;;;24.57;65.06;100487.84;10132425;28;96982;-80
2023/06/25 02:41:29;;;;;;;11.30;7.67;;;;;;;24.53;65.18;100486.41;10129884;28;98651;-80
2023/06/25 02:46:32;;;;;;;14.30;8.93;;;;;;;24.46;65.34;100485.28;10118179;28;98779;-80
2023/06/25 02:51:36;;;;;;;11.73;7.85;;;;;;;24.26;65.91;100475.50;10137801;28;96869;-80
2023/06/25 02:56:40;;;;;;;12.07;8.27;;;;;;;24.24;65.99;100484.69;10137856;28;96989;-80
2023/06/25 03:01:44;;;;;;;10.75;8.52;;;;;;;24.18;65.85;100483.44;10139509;28;96746;-80
2023/06/25 03:06:47;;;;;;;12.33;7.63;;;;;;;24.20;65.84;100478.78;10129959;28;98848;-80
2023/06/25 03:11:52;;;;;;;12.73;8.30;;;;;;;24.17;65.84;100479.03;10129506;28;97667;-79
2023/06/25 03:16:55;;;;;;;10.68;8.25;;;;;;;24.11;66.33;100479.63;10128199;28;96907;-80
2023/06/25 03:21:58;;;;;;;10.53;8.20;;;;;;;24.02;66.31;100480.47;10130059;28;96962;-80
2023/06/25 03:27:03;;;;;;;11.60;8.00;;;;;;;23.94;66.52;100480.31;10128648;28;97631;-80
2023/06/25 03:32:09;;;;;;;13.02;8.60;;;;;;;23.92;66.63;100478.75;10112894;28;98877;-80
2023/06/25 03:37:12;;;;;;;11.93;8.90;;;;;;;23.84;66.69;100486.66;10130967;28;98421;-80
2023/06/25 03:42:17;;;;;;;11.70;8.48;;;;;;;23.93;66.69;100493.88;10139685;28;97085;-80
2023/06/25 03:47:20;;;;;;;11.85;8.20;;;;;;;23.73;66.89;100494.84;10114961;28;96857;-80
2023/06/25 03:52:23;;;;;;;12.73;7.93;;;;;;;23.77;67.04;100502.47;10131479;28;97600;-80
2023/06/25 03:57:28;;;;;;;12.73;8.57;;;;;;;23.87;66.52;100503.38;10131562;28;97492;-80
2023/06/25 04:02:31;;;;;;;12.45;8.40;;;;;;;23.60;67.37;100500.47;10136451;28;99086;-80
2023/06/25 04:07:34;;;;;;;12.33;7.80;;;;;;;23.46;67.86;100508.84;10137004;28;98786;-80
2023/06/25 04:12:39;;;;;;;11.80;8.53;;;;;;;23.57;67.56;100508.81;10133978;28;98682;-80
2023/06/25 04:17:42;;;;;;;10.90;8.07;;;;;;;23.55;67.54;100508.06;10132046;28;99197;-80
2023/06/25 04:22:45;;;;;;;10.17;8.03;;;;;;;23.41;67.78;100508.41;10141101;28;97543;-80
2023/06/25 04:27:50;;;;;;;12.67;8.17;;;;;;;23.44;67.94;100502.78;10134791;28;97185;-80
2023/06/25 04:32:54;;;;;;;12.88;7.43;;;;;;;23.18;68.86;100512.31;10139105;28;98496;-80
2023/06/25 04:37:57;;;;;;;;;;;;;;;23.27;69.05;100509.66;10141897;28;96962;-80
2023/06/25 04:43:02;;;;;;;11.40;7.85;;;;;;;23.23;67.85;100516.25;10132093;28;98670;-80
2023/06/25 04:48:06;;;;;;;10.65;7.82;;;;;;;23.26;68.29;100521.38;10128664;28;96857;-79
2023/06/25 04:53:09;;;;;;;;;;;;;;;23.22;68.63;100527.13;10137342;28;99028;-79
2023/06/25 04:58:14;;;;;;;12.32;7.68;;;;;;;23.23;67.65;100524.31;10149810;28;98722;-80
2023/06/25 05:03:17;;;;;;;12.70;8.40;;;;;;;23.20;67.89;100532.66;10139038;28;97860;-80
2023/06/25 05:08:20;;;;;;;11.13;7.47;;;;;;;23.20;68.18;100537.19;10139307;28;99137;-79
2023/06/25 05:13:25;;;;;;;12.13;7.22;;;;;;;23.08;68.32;100543.59;10141665;28;96909;-80
2023/06/25 05:18:28;;;;;;;13.30;8.43;;;;;;;23.15;68.34;100551.00;10142466;28;96996;-80
2023/06/25 05:23:39;;;;;;;11.93;7.65;;;;;;;23.04;68.85;100548.41;10138237;28;98894;-80
2023/06/25 05:28:44;;;;;;;11.77;7.65;;;;;;;23.14;68.57;100556.50;10136106;28;96804;-80
2023/06/25 05:33:47;;;;;;;10.75;7.15;;;;;;;23.17;68.34;100565.13;10131501;28;96820;-80
2023/06/25 05:38:50;;;;;;;12.10;7.73;;;;;;;23.27;68.04;100571.41;10132275;28;98860;-80
2023/06/25 05:43:55;;;;;;;11.40;7.17;;;;;;;23.32;68.11;100571.84;10133275;28;97278;-79
2023/06/25 05:48:58;;;;;;;10.30;7.25;;;;;;;23.20;68.69;100580.97;10132669;28;98212;-80
2023/06/25 05:54:01;;;;;;;13.60;7.63;;;;;;;23.34;68.08;100574.41;10136020;28;99107;-81
2023/06/25 05:59:06;;;;;;;12.30;7.28;;;;;;;23.22;68.57;100575.47;10133110;28;97057;-80
2023/06/25 06:04:09;;;;;;;10.48;7.60;;;;;;;23.25;68.61;100578.75;10138997;28;96903;-80
2023/06/25 06:09:12;;;;;;;9.88;7.32;;;;;;;23.21;68.79;100584.53;10144684;28;97024;-81
2023/06/25 06:14:17;;;;;;;11.23;7.63;;;;;;;23.32;68.57;100587.97;10141917;28;97220;-81
2023/06/25 06:19:20;;;;;;;13.48;7.28;;;;;;;23.35;68.24;100589.56;10152969;28;96960;-81
2023/06/25 06:24:23;;;;;;;11.53;7.30;;;;;;;23.46;68.23;100584.06;10169271;28;96606;-81
2023/06/25 06:29:28;;;;;;;11.57;7.33;;;;;;;23.66;67.79;100591.28;10143188;28;96716;-81
2023/06/25 06:34:31;;;;;;;12.05;7.07;;;;;;;23.82;67.46;100580.88;10136448;28;96755;-81
2023/06/25 06:39:35;;;;;;;11.07;7.90;;;;;;;23.83;67.42;100582.56;10146859;28;98776;-80
2023/06/25 06:44:39;;;;;;;13.40;8.00;;;;;;;23.91;67.21;100593.47;10163502;23;97660;-80
2023/06/25 06:49:43;;;;;;;11.98;7.72;;;;;;;23.90;67.37;100591.78;10207263;28;96718;-81
2023/06/25 06:54:46;;;;;;;11.95;7.65;;;;;;;23.99;67.14;100600.88;10208813;28;98632;-81
2023/06/25 06:59:51;;;;;;;12.77;7.40;;;;;;;24.10;67.11;100612.34;10209973;28;96905;-80
2023/06/25 07:04:54;;;;;;;11.30;7.85;;;;;;;23.97;67.20;100614.44;10209764;28;96883;-80
2023/06/25 07:09:57;;;;;;;15.50;7.83;;;;;;;24.06;67.11;100616.31;10205639;28;96743;-80
2023/06/25 07:15:02;;;;;;;11.77;7.55;;;;;;;24.38;66.44;100624.19;10201682;28;96927;-81
2023/06/25 07:20:06;;;;;;;10.88;6.90;;;;;;;24.34;66.60;100625.47;10206985;28;96810;-85
2023/06/25 07:25:11;;;;;;;12.38;7.35;;;;;;;24.35;66.72;100627.16;10202251;28;98658;-84
2023/06/25 07:30:16;;;;;;;10.68;6.95;;;;;;;24.49;66.24;100626.78;10203903;28;96829;-82
2023/06/25 07:35:20;;;;;;;11.75;7.35;;;;;;;24.76;65.85;100621.53;10205942;28;97483;-84
2023/06/25 07:40:23;;;;;;;10.13;7.40;;;;;;;24.84;65.51;100617.13;10211208;28;96842;-84
2023/06/25 07:45:28;;;;;;;11.73;8.10;;;;;;;24.92;65.46;100626.34;10200621;28;96861;-77
2023/06/25 07:50:31;;;;;;;11.30;6.95;;;;;;;25.03;65.31;100626.25;10215867;28;96942;-77
2023/06/25 07:55:40;;;;;;;11.33;7.53;;;;;;;25.29;64.64;100625.50;10215311;28;96840;-78
2023/06/25 08:01:04;;;;;;;10.80;7.05;;;;;;;25.71;63.66;100625.97;10215564;28;96843;-77
2023/06/25 08:06:07;;;;;;;11.38;7.25;;;;;;;25.65;64.04;100624.69;10214988;28;97055;-77
2023/06/25 08:11:10;;;;;;;12.50;6.70;;;;;;;25.76;63.77;100629.91;10213810;28;98201;-77
2023/06/25 08:16:15;;;;;;;11.47;7.40;;;;;;;25.84;63.84;100630.03;10215508;28;97301;-77
2023/06/25 08:21:18;;;;;;;12.23;7.88;;;;;;;25.88;63.62;100631.41;10215388;28;96791;-77
2023/06/25 08:26:21;;;;;;;12.17;7.70;;;;;;;26.20;63.29;100633.66;10213454;28;97280;-78
2023/06/25 08:31:26;;;;;;;9.90;7.40;;;;;;;26.50;62.61;100635.22;10212878;28;96825;-81
2023/06/25 08:36:29;;;;;;;14.25;8.07;;;;;;;26.69;62.71;100627.81;10212602;28;96850;-82
2023/06/25 08:41:34;;;;;;;13.03;8.40;;;;;;;26.81;62.27;100633.84;10214723;28;96895;-79
2023/06/25 08:46:44;;;;;;;12.98;7.68;;;;;;;27.27;61.41;100638.16;10210791;28;97544;-79
2023/06/25 08:51:48;;;;;;;11.40;7.65;;;;;;;27.58;60.70;100632.09;10202924;28;98410;-81
2023/06/25 08:56:51;;;;;;;9.80;7.72;;;;;;;27.68;60.34;100624.75;10214367;28;96745;-81
2023/06/25 09:01:56;;;;;;;12.60;8.07;;;;;;;27.80;60.48;100625.31;10213095;28;97618;-81
2023/06/25 09:07:06;;;;;;;13.07;8.43;;;;;;;28.00;60.52;100622.19;10212936;28;97456;-79
2023/06/25 09:12:10;;;;;;;11.60;8.65;;;;;;;28.04;60.14;100620.00;10214072;28;97168;-80
2023/06/25 09:17:20;;;;;;;11.45;8.40;;;;;;;28.12;59.98;100611.91;10211974;28;96917;-80
2023/06/25 09:22:23;;;;;;;11.00;8.75;;;;;;;28.31;59.51;100608.13;10209991;28;97238;-80
2023/06/25 09:27:26;;;;;;;10.35;8.52;;;;;;;28.60;58.80;100603.94;10212968;28;96685;-80
2023/06/25 09:32:31;;;;;;;10.55;8.25;;;;;;;28.76;58.63;100605.81;10211783;28;98843;-79
2023/06/25 09:37:37;;;;;;;11.60;8.85;;;;;;;29.08;58.35;100597.72;10212874;28;96842;-79
2023/06/25 09:42:43;;;;;;;10.77;7.78;;;;;;;29.22;57.93;100604.31;10212928;28;96867;-80
2023/06/25 09:47:49;;;;;;;11.27;7.88;;;;;;;29.40;57.86;100594.97;10211222;28;96746;-80
2023/06/25 09:52:56;;;;;;;12.35;8.50;;;;;;;29.56;57.22;100591.41;10211190;28;96750;-80
2023/06/25 09:58:01;;;;;;;12.02;8.40;;;;;;;29.90;56.94;100581.94;10210300;28;96796;-80
2023/06/25 10:03:06;;;;;;;11.25;8.48;;;;;;;29.90;56.35;100591.97;10182757;28;96973;-80
2023/06/25 10:08:11;;;;;;;11.25;7.90;;;;;;;29.97;56.25;100595.69;10171861;28;96779;-81
2023/06/25 10:13:14;;;;;;;11.73;7.93;;;;;;;29.99;56.46;100596.31;10182932;28;96997;-81
2023/06/25 10:18:24;;;;;;;;;;;;;;;29.93;56.13;100592.47;10212116;28;97268;-81
2023/06/25 10:23:30;;;;;;;9.98;8.02;;;;;;;30.15;56.01;100594.44;10207787;28;98955;-81
2023/06/25 10:28:35;;;;;;;12.07;7.78;;;;;;;30.30;55.36;100590.97;10204919;28;97051;-81
2023/06/25 10:33:40;;;;;;;10.90;8.60;;;;;;;30.37;55.62;100594.66;10195896;28;96777;-83
2023/06/25 10:38:43;;;;;;;11.43;8.38;;;;;;;30.37;55.02;100595.47;10210468;28;96984;-82
2023/06/25 10:43:47;;;;;;;11.02;8.15;;;;;;;30.44;54.62;100588.28;10203532;28;96757;-82
2023/06/25 10:48:51;;;;;;;;;;;;;;;30.48;54.09;100586.91;10206326;28;96955;-82
2023/06/25 10:53:55;;;;;;;10.75;7.72;;;;;;;30.76;54.02;100584.53;10204654;28;98414;-83
2023/06/25 10:58:59;;;;;;;12.77;7.85;;;;;;;30.93;53.47;100586.09;10209788;28;96707;-82
2023/06/25 11:04:14;;;;;;;10.20;7.85;;;;;;;31.15;52.57;100585.19;10196387;28;96924;-84
2023/06/25 11:09:17;;;;;;;11.40;8.02;;;;;;;31.11;52.79;100582.00;10197859;28;96762;-82
2023/06/25 11:14:21;;;;;;;9.18;8.02;;;;;;;31.30;52.70;100580.69;10216884;28;97231;-88
2023/06/25 11:19:27;;;;;;;11.05;7.78;;;;;;;31.51;51.97;100577.22;10215966;28;96941;-83
2023/06/25 11:24:34;;;;;;;10.05;8.20;;;;;;;31.71;51.94;100570.19;10210259;28;97370;-85
2023/06/25 11:29:39;;;;;;;9.98;7.68;;;;;;;31.69;51.91;100567.66;10206351;28;98392;-82
2023/06/25 11:34:45;;;;;;;10.65;7.80;;;;;;;31.98;51.36;100561.38;10210494;28;96950;-85
2023/06/25 11:39:50;;;;;;;9.35;7.25;;;;;;;32.08;50.20;100554.56;10203359;28;97393;-86
2023/06/25 11:45:01;;;;;;;9.75;7.43;;;;;;;32.05;49.97;100546.78;10210449;28;97524;-82
2023/06/25 11:50:06;;;;;;;9.32;7.10;;;;;;;32.18;50.15;100552.41;10208492;28;98881;-83
2023/06/25 11:55:11;;;;;;;9.45;7.65;;;;;;;32.51;49.83;100557.38;10208743;28;96940;-80
2023/06/25 12:00:15;;;;;;;11.43;8.30;;;;;;;32.54;49.59;100555.13;10207806;28;98502;-78
2023/06/25 12:05:20;;;;;;;9.80;7.65;;;;;;;32.61;49.40;100557.91;10200696;28;97814;-80
2023/06/25 12:10:23;;;;;;;12.10;8.02;;;;;;;32.67;49.74;100552.53;10210906;28;98387;-80
2023/06/25 12:15:26;;;;;;;9.00;7.65;;;;;;;32.69;49.15;100553.16;10210943;28;99165;-80
2023/06/25 12:20:31;;;;;;;11.27;8.60;;;;;;;32.75;48.49;100546.94;10207702;28;96964;-80
2023/06/25 12:25:34;;;;;;;9.25;7.38;;;;;;;32.95;47.84;100547.97;10208817;28;98391;-80
2023/06/25 12:30:38;;;;;;;8.10;6.70;;;;;;;33.01;47.70;100552.66;10214821;28;96749;-82
2023/06/25 12:35:42;;;;;;;9.18;7.40;;;;;;;33.06;47.36;100549.31;10203396;28;96813;-80
2023/06/25 12:40:46;;;;;;;10.45;7.40;;;;;;;33.11;46.63;100555.88;10213122;28;96733;-80
2023/06/25 12:45:50;;;;;;;9.05;7.10;;;;;;;33.38;46.47;100546.81;10208616;28;97990;-80
2023/06/25 12:50:54;;;;;;;8.93;6.78;;;;;;;33.24;47.08;100550.50;10211916;28;97306;-80
2023/06/25 12:55:58;;;;;;;8.57;7.15;;;;;;;33.41;46.50;100541.00;10209862;28;96766;-81
2023/06/25 13:01:01;;;;;;;8.52;6.45;;;;;;;33.31;46.39;100542.38;10206098;28;96942;-81
2023/06/25 13:06:13;;;;;;;8.75;6.40;;;;;;;33.37;45.99;100547.88;10200949;28;96757;-80
2023/06/25 13:11:16;;;;;;;9.60;7.13;;;;;;;33.62;45.31;100541.97;10209849;28;97422;-81
2023/06/25 13:16:19;;;;;;;9.10;7.38;;;;;;;33.58;44.56;100544.25;10207850;28;96877;-81
2023/06/25 13:21:24;;;;;;;9.63;7.32;;;;;;;33.69;44.15;100551.88;10211395;28;97945;-82
2023/06/25 13:26:27;;;;;;;7.75;6.55;;;;;;;33.85;43.68;100547.97;10209399;28;97612;-83
2023/06/25 13:31:30;;;;;;;8.15;6.60;;;;;;;33.82;43.11;100542.88;10210858;28;96817;-82
2023/06/25 13:36:35;;;;;;;8.68;6.28;;;;;;;34.01;42.06;100545.75;10207517;28;96876;-81
2023/06/25 13:41:38;;;;;;;8.98;6.50;;;;;;;33.96;41.81;100539.19;10208673;28;97961;-84
2023/06/25 13:46:42;;;;;;;8.05;6.35;;;;;;;33.97;41.17;100543.63;10209737;28;96782;-84
2023/06/25 13:51:48;;;;;;;7.53;6.20;;;;;;;34.23;40.61;100544.53;10211829;28;96895;-83
2023/06/25 13:56:51;;;;;;;7.22;5.85;;;;;;;34.17;38.92;100534.44;10208116;28;96821;-83
2023/06/25 14:01:58;;;;;;;9.20;6.40;;;;;;;34.32;38.91;100539.72;10210983;28;96617;-83
2023/06/25 14:07:03;;;;;;;7.63;5.43;;;;;;;34.23;38.23;100535.53;10209631;28;98748;-83
2023/06/25 14:12:07;;;;;;;7.47;5.90;;;;;;;34.35;37.75;100520.22;10210742;28;96834;-82
2023/06/25 14:17:10;;;;;;;7.85;5.65;;;;;;;34.43;37.06;100526.34;10210184;28;96926;-82
2023/06/25 14:22:15;;;;;;;6.93;5.60;;;;;;;34.47;36.49;100522.13;10209506;28;97018;-83
2023/06/25 14:27:18;;;;;;;5.95;4.78;;;;;;;34.48;36.17;100526.56;10208099;28;97366;-83
2023/06/25 14:32:21;;;;;;;7.47;5.55;;;;;;;34.56;35.49;100517.31;10207738;28;96778;-83
2023/06/25 14:37:27;;;;;;;7.25;5.68;;;;;;;34.75;35.34;100502.78;10208841;28;97454;-83
2023/06/25 14:42:31;;;;;;;7.53;5.20;;;;;;;34.78;34.82;100517.97;10209678;28;96885;-83
2023/06/25 14:47:37;;;;;;;7.38;5.00;;;;;;;34.84;34.68;100509.75;10206743;28;96874;-82
2023/06/25 14:52:41;;;;;;;5.90;5.30;;;;;;;34.84;34.60;100498.81;10208919;28;96877;-83
2023/06/25 14:57:45;;;;;;;7.78;5.43;;;;;;;34.95;33.88;100511.03;10208225;28;97426;-83
2023/06/25 15:02:48;;;;;;;6.95;5.20;;;;;;;34.90;33.78;100511.66;10207138;28;96962;-86
2023/06/25 15:07:53;;;;;;;6.88;5.30;;;;;;;34.97;33.57;100506.19;10202959;28;97793;-84
2023/06/25 15:12:56;;;;;;;7.07;5.32;;;;;;;34.97;33.92;100492.53;10207436;28;97603;-85
2023/06/25 15:18:00;;;;;;;6.93;5.05;;;;;;;34.83;33.48;100491.66;10205091;28;98473;-84
2023/06/25 15:23:04;;;;;;;6.03;4.85;;;;;;;34.81;33.14;100490.19;10207155;28;96754;-83
2023/06/25 15:28:08;;;;;;;6.03;4.82;;;;;;;34.82;33.06;100489.97;10198302;28;98340;-78
2023/06/25 15:33:11;;;;;;;6.78;5.38;;;;;;;34.74;33.35;100490.19;10201167;28;98482;-82
2023/06/25 15:38:16;;;;;;;5.93;4.80;;;;;;;34.84;34.25;100484.31;10205357;28;98735;-83
2023/06/25 15:43:20;;;;;;;7.60;5.05;;;;;;;34.88;34.02;100482.81;10209559;28;96640;-83
2023/06/25 15:48:23;;;;;;;7.00;5.43;;;;;;;34.71;33.98;100496.09;10207930;28;96765;-82
2023/06/25 15:53:28;;;;;;;7.30;5.35;;;;;;;34.61;34.40;100492.09;10210214;28;96764;-82
2023/06/25 15:58:33;;;;;;;6.88;4.85;;;;;;;34.68;34.47;100482.00;10209759;28;96785;-85
2023/06/25 16:03:36;;;;;;;6.03;4.90;;;;;;;34.50;34.80;100483.47;10207636;28;98691;-82
2023/06/25 16:08:41;;;;;;;6.88;5.30;;;;;;;34.37;34.87;100491.59;10210151;28;99373;-80
2023/06/25 16:13:45;;;;;;;6.97;5.00;;;;;;;34.37;35.49;100486.13;10210177;28;98740;-82
2023/06/25 16:18:49;;;;;;;6.38;5.22;;;;;;;34.14;36.31;100479.38;10201027;28;98177;-82
2023/06/25 16:24:05;;;;;;;7.00;5.47;;;;;;;33.91;36.94;100487.91;10210890;28;97224;-82
2023/06/25 16:29:10;;;;;;;6.57;4.80;;;;;;;33.89;37.52;100487.25;10211024;28;96724;-82
2023/06/25 16:34:13;;;;;;;8.65;5.53;;;;;;;33.76;38.39;100483.63;10195507;28;99103;-83
2023/06/25 16:39:18;;;;;;;5.70;4.68;;;;;;;33.40;39.35;100481.16;10206021;28;98818;-84
2023/06/25 16:44:21;;;;;;;6.80;5.25;;;;;;;33.40;39.83;100482.00;10201771;28;97201;-84
2023/06/25 16:49:25;;;;;;;7.47;5.25;;;;;;;33.41;39.97;100483.69;10203982;28;96791;-82
2023/06/25 16:54:29;;;;;;;6.45;4.97;;;;;;;33.39;40.63;100477.56;10205545;28;97014;-81
2023/06/25 16:59:33;;;;;;;5.50;4.35;;;;;;;33.30;40.48;100467.84;10210459;28;96805;-83
2023/06/25 17:04:38;;;;;;;5.55;4.60;;;;;;;33.32;41.24;100471.22;10208987;28;96871;-84
2023/06/25 17:09:42;;;;;;;6.38;4.50;;;;;;;32.95;41.09;100477.06;10205223;28;96951;-75
2023/06/25 17:14:46;;;;;;;5.40;4.32;;;;;;;32.78;41.03;100483.84;10203454;28;98864;-74
2023/06/25 17:19:49;;;;;;;5.88;4.63;;;;;;;32.99;41.15;100485.69;10221335;28;99296;-73
2023/06/25 17:24:54;;;;;;;4.75;3.90;;;;;;;33.10;40.92;100480.56;10208226;28;98727;-82
2023/06/25 17:29:57;;;;;;;5.53;4.07;;;;;;;32.92;40.37;100473.91;10204245;28;96985;-81
2023/06/25 17:35:00;;;;;;;6.45;4.28;;;;;;;33.00;40.36;100484.66;10204537;28;98997;-80
2023/06/25 17:40:09;;;;;;;5.03;3.70;;;;;;;32.95;40.88;100477.06;10200087;28;96942;-80
2023/06/25 17:45:12;;;;;;;5.65;4.47;;;;;;;32.95;40.42;100485.25;10201509;28;97021;-81
2023/06/25 17:50:42;;;;;;;5.75;4.05;;;;;;;32.82;40.94;100490.59;10211557;28;100032;-82
2023/06/25 17:56:00;;;;;;;5.10;3.65;;;;;;;32.60;40.92;100485.34;10200183;28;98210;-81
2023/06/25 18:01:04;;;;;;;6.22;4.22;;;;;;;32.38;41.65;100493.53;10205992;28;98306;-83
2023/06/25 18:06:07;;;;;;;5.90;4.20;;;;;;;32.19;42.11;100493.31;10198160;28;96895;-80
2023/06/25 18:11:22;;;;;;;5.18;3.83;;;;;;;32.04;42.65;100489.81;10206338;28;96929;-82
2023/06/25 18:16:25;;;;;;;5.45;4.00;;;;;;;31.80;43.80;100498.31;10209291;28;97406;-82
2023/06/25 18:21:29;;;;;;;5.40;4.15;;;;;;;31.62;44.29;100489.66;10208621;28;96666;-82
2023/06/25 18:26:37;;;;;;;7.60;3.97;;;;;;;31.53;44.32;100499.00;10209833;28;96800;-82
2023/06/25 18:31:41;;;;;;;4.28;3.28;;;;;;;31.41;45.21;100504.03;10209278;28;97813;-82
2023/06/25 18:36:46;;;;;;;4.82;3.60;;;;;;;31.20;46.32;100512.91;10208963;28;97042;-81
2023/06/25 18:41:50;;;;;;;6.88;3.40;;;;;;;31.06;46.72;100513.75;10208101;28;96687;-81
2023/06/25 18:46:54;;;;;;;4.60;3.40;;;;;;;30.97;46.66;100516.75;10208091;28;97670;-82
2023/06/25 18:51:57;;;;;;;;;;;;;;;30.76;48.13;100513.88;10209177;28;96769;-82
2023/06/25 18:57:02;;;;;;;4.40;3.00;;;;;;;30.65;47.98;100517.84;10208608;28;97654;-82
2023/06/25 19:02:08;;;;;;;5.32;3.25;;;;;;;30.72;47.92;100521.56;10208488;28;96617;-82
2023/06/25 19:07:11;;;;;;;4.65;3.40;;;;;;;30.70;47.92;100525.47;10208210;28;96678;-81
2023/06/25 19:12:15;;;;;;;;;;;;;;;30.51;49.33;100528.69;10208908;28;97795;-81
2023/06/25 19:17:19;;;;;;;5.07;3.10;;;;;;;30.34;48.95;100527.94;10202694;22;97776;-82
2023/06/25 19:22:22;;;;;;;4.65;3.30;;;;;;;30.26;49.50;100539.69;10167870;28;96751;-82
2023/06/25 19:27:26;;;;;;;;;;;;;;;30.24;49.86;100544.50;10158430;28;97026;-82
2023/06/25 19:32:30;;;;;;;5.03;3.15;;;;;;;30.13;49.71;100541.31;10132968;28;96757;-81
2023/06/25 19:37:33;;;;;;;;;;;;;;;30.00;50.80;100549.19;10135130;28;96674;-82
2023/06/25 19:42:37;;;;;;;4.97;3.03;;;;;;;29.98;50.13;100556.66;10134996;28;96658;-81
2023/06/25 19:47:41;;;;;;;3.88;2.97;;;;;;;29.87;50.42;100551.59;10135112;28;96780;-81
2023/06/25 19:52:44;;;;;;;;;;;;;;;29.74;51.36;100554.03;10135343;28;97030;-81
2023/06/25 19:57:48;;;;;;;3.95;2.90;;;;;;;29.60;50.85;100554.78;10134954;28;96803;-81
2023/06/25 20:02:52;;;;;;;5.18;2.88;;;;;;;29.46;51.33;100560.88;10135093;28;96669;-81
2023/06/25 20:07:55;;;;;;;4.10;3.00;;;;;;;29.12;52.02;100567.41;10149552;28;97423;-81
2023/06/25 20:13:00;;;;;;;5.32;2.83;;;;;;;28.98;52.51;100568.09;10173615;28;96760;-81
2023/06/25 20:18:03;;;;;;;3.78;2.55;;;;;;;28.75;53.07;100571.63;10165361;28;97132;-81
2023/06/25 20:23:08;;;;;;;4.78;2.88;;;;;;;28.62;53.53;100579.41;10132722;28;96554;-81
2023/06/25 20:28:13;;;;;;;4.13;2.58;;;;;;;28.50;53.27;100594.31;10133392;28;96824;-82
2023/06/25 20:33:16;;;;;;;5.32;2.88;;;;;;;28.24;54.05;100594.34;10133559;28;96570;-82
2023/06/25 20:38:19;;;;;;;2.97;2.38;;;;;;;28.08;54.22;100597.88;10142575;28;97873;-81
2023/06/25 20:43:24;;;;;;;6.28;3.00;;;;;;;27.90;54.43;100612.50;10172303;28;96743;-81
2023/06/25 20:48:27;;;;;;;3.88;2.33;;;;;;;27.73;54.87;100618.84;10172452;28;96838;-81
2023/06/25 20:53:31;;;;;;;5.05;2.55;;;;;;;27.66;55.19;100631.28;10153710;28;96762;-81
2023/06/25 20:58:36;;;;;;;4.10;2.83;;;;;;;27.44;55.35;100648.88;10133242;28;98242;-81
2023/06/25 21:03:39;;;;;;;4.63;2.38;;;;;;;27.45;55.03;100653.31;10132554;28;97854;-81
2023/06/25 21:08:43;;;;;;;4.18;2.65;;;;;;;27.37;55.33;100661.38;10162850;28;96856;-81
2023/06/25 21:13:48;;;;;;;3.65;2.45;;;;;;;27.32;55.31;100665.53;10130824;28;96715;-82
2023/06/25 21:18:51;;;;;;;6.07;2.95;;;;;;;27.14;55.57;100668.28;10131850;28;96719;-81
2023/06/25 21:23:54;;;;;;;4.60;2.65;;;;;;;27.12;55.33;100675.69;10131876;28;97385;-82
2023/06/25 21:28:59;;;;;;;5.20;2.70;;;;;;;27.15;55.68;100680.75;10168243;28;97162;-81
2023/06/25 21:34:03;;;;;;;4.85;2.80;;;;;;;27.17;55.27;100686.00;10170878;28;96834;-81
2023/06/25 21:39:06;;;;;;;5.63;3.17;;;;;;;26.86;56.68;100691.78;10170756;28;97320;-81
2023/06/25 21:44:11;;;;;;;4.75;2.60;;;;;;;26.54;57.49;100693.31;10154451;28;96951;-81
2023/06/25 21:49:15;;;;;;;3.92;2.70;;;;;;;26.37;57.42;100694.94;10165822;28;97609;-81
2023/06/25 21:54:18;;;;;;;4.97;2.97;;;;;;;26.34;57.95;100687.13;10169445;28;96727;-81
2023/06/25 21:59:23;;;;;;;3.50;2.80;;;;;;;26.27;58.38;100693.25;10168965;28;96826;-81
2023/06/25 22:04:26;;;;;;;4.57;2.78;;;;;;;26.13;58.49;100693.75;10129774;28;96942;-81
2023/06/25 22:09:30;;;;;;;5.10;3.03;;;;;;;26.25;57.89;100704.22;10130454;28;96970;-81
2023/06/25 22:14:35;;;;;;;3.47;2.65;;;;;;;26.40;57.58;100707.31;10129755;28;96971;-81
2023/06/25 22:19:38;;;;;;;4.45;3.03;;;;;;;26.24;58.33;100707.91;10130472;28;96702;-81
2023/06/25 22:24:41;;;;;;;3.92;2.42;;;;;;;26.01;58.85;100725.47;10155456;28;97149;-81
2023/06/25 22:29:46;;;;;;;3.63;2.80;;;;;;;25.92;59.03;100732.59;10169448;28;97132;-81
2023/06/25 22:34:50;;;;;;;3.75;2.60;;;;;;;25.97;59.13;100728.63;10156130;28;97300;-81
2023/06/25 22:39:54;;;;;;;4.25;2.47;;;;;;;25.85;59.08;100733.31;10129860;28;97834;-81
2023/06/25 22:44:59;;;;;;;;;;;;;;;25.75;59.85;100744.16;10129447;28;96651;-81
2023/06/25 22:50:03;;;;;;;4.32;2.78;;;;;;;25.69;59.57;100742.03;10129444;28;96734;-81
2023/06/25 22:55:07;;;;;;;5.75;3.35;;;;;;;25.63;59.75;100741.72;10128440;28;96659;-81
2023/06/25 23:00:14;;;;;;;4.82;3.10;;;;;;;25.52;60.03;100736.50;10128942;28;96712;-81
2023/06/25 23:05:17;;;;;;;3.38;2.75;;;;;;;25.52;59.98;100734.66;10128759;28;96793;-81
2023/06/25 23:10:21;;;;;;;5.13;3.07;;;;;;;25.36;60.49;100741.63;10129092;28;97568;-81
2023/06/25 23:15:25;;;;;;;4.00;2.90;;;;;;;25.31;60.71;100733.94;10127997;28;96893;-80
2023/06/25 23:20:29;;;;;;;4.95;2.83;;;;;;;25.31;60.57;100733.13;10128085;28;97562;-81